createdAt,value
2018-03-24T00:02:25.929Z,24.83
2018-03-24T00:04:53.377Z,25.83
2018-03-24T00:07:20.847Z,21.97
2018-03-24T00:09:48.297Z,22.90
2018-03-24T00:12:15.758Z,22.63
2018-03-24T00:14:43.213Z,25.47
2018-03-24T00:17:10.670Z,24.33
2018-03-24T00:19:38.125Z,22.57
2018-03-24T00:22:05.590Z,21.00
2018-03-24T00:24:33.038Z,21.17
2018-03-24T00:27:00.497Z,24.00
2018-03-24T00:29:27.945Z,21.13
2018-03-24T00:31:55.453Z,20.60
2018-03-24T00:34:22.905Z,21.30
2018-03-24T00:36:50.367Z,23.37
2018-03-24T00:39:17.821Z,22.17
2018-03-24T00:41:45.327Z,28.30
2018-03-24T00:44:12.766Z,23.93
2018-03-24T00:46:40.229Z,21.53
2018-03-24T00:49:07.685Z,22.07
2018-03-24T00:51:35.146Z,22.57
2018-03-24T00:54:02.593Z,23.67
2018-03-24T00:56:30.058Z,21.73
2018-03-24T00:58:57.509Z,24.10
2018-03-24T01:01:24.968Z,24.37
2018-03-24T01:03:52.429Z,24.30
2018-03-24T01:06:19.902Z,25.00
2018-03-24T01:08:47.345Z,25.50
2018-03-24T01:11:14.815Z,27.70
2018-03-24T01:13:42.261Z,22.47
2018-03-24T01:16:09.722Z,23.67
2018-03-24T01:18:37.173Z,27.03
2018-03-24T01:21:04.637Z,26.00
2018-03-24T01:23:32.090Z,23.73
2018-03-24T01:25:59.557Z,24.33
2018-03-24T01:28:27.025Z,23.30
2018-03-24T01:30:54.481Z,23.63
2018-03-24T01:33:21.934Z,24.77
2018-03-24T01:35:49.389Z,24.10
2018-03-24T01:38:16.853Z,24.07
2018-03-24T01:40:44.301Z,24.90
2018-03-24T01:43:11.766Z,24.73
2018-03-24T01:45:39.224Z,24.37
2018-03-24T01:48:06.680Z,21.07
2018-03-24T01:50:34.133Z,23.03
2018-03-24T01:53:01.603Z,26.43
2018-03-24T01:55:29.049Z,24.60
2018-03-24T01:57:56.509Z,23.13
2018-03-24T02:00:23.958Z,25.53
2018-03-24T02:02:51.417Z,21.47
2018-03-24T02:05:18.869Z,23.50
2018-03-24T02:07:46.329Z,23.17
2018-03-24T02:10:13.781Z,23.73
2018-03-24T02:12:41.245Z,22.47
2018-03-24T02:15:08.700Z,22.53
2018-03-24T02:17:36.158Z,23.13
2018-03-24T02:20:04.377Z,22.17
2018-03-24T02:22:31.847Z,22.57
2018-03-24T02:24:59.298Z,24.13
2018-03-24T02:27:26.760Z,22.80
2018-03-24T02:29:54.214Z,24.93
2018-03-24T02:32:21.674Z,24.70
2018-03-24T02:34:49.126Z,23.60
2018-03-24T02:37:16.595Z,25.63
2018-03-24T02:39:44.054Z,27.27
2018-03-24T02:42:11.513Z,28.47
2018-03-24T02:44:38.970Z,26.47
2018-03-24T02:47:06.439Z,25.00
2018-03-24T02:49:33.901Z,27.43
2018-03-24T02:52:02.133Z,27.20
2018-03-24T02:54:29.594Z,27.43
2018-03-24T02:56:57.046Z,26.33
2018-03-24T02:59:24.511Z,28.73
2018-03-24T03:01:51.967Z,27.90
2018-03-24T03:04:19.426Z,28.47
2018-03-24T03:06:46.877Z,28.27
2018-03-24T03:09:14.346Z,25.50
2018-03-24T03:11:41.797Z,29.20
2018-03-24T03:14:09.264Z,29.50
2018-03-24T03:16:36.717Z,27.20
2018-03-24T03:19:04.178Z,29.50
2018-03-24T03:24:26.440Z,31.50
2018-03-24T03:26:53.885Z,29.20
2018-03-24T03:29:21.346Z,30.50
2018-03-24T03:32:05.590Z,31.20
2018-03-24T03:34:33.050Z,28.30
2018-03-24T03:37:00.501Z,27.50
2018-03-24T03:39:27.978Z,36.93
2018-03-24T03:41:55.431Z,28.27
2018-03-24T03:44:22.885Z,28.80
2018-03-24T03:46:50.337Z,30.37
2018-03-24T03:49:17.802Z,30.50
2018-03-24T03:51:45.265Z,25.43
2018-03-24T03:54:12.721Z,29.07
2018-03-24T03:56:40.173Z,24.47
2018-03-24T03:59:07.633Z,28.33
2018-03-24T04:01:35.088Z,30.60
2018-03-24T04:04:02.550Z,30.70
2018-03-24T04:06:30.002Z,29.23
2018-03-24T04:08:57.458Z,29.67
2018-03-24T04:11:24.909Z,27.13
2018-03-24T04:13:52.357Z,31.97
2018-03-24T04:16:19.805Z,29.07
2018-03-24T04:18:47.266Z,30.50
2018-03-24T04:21:14.722Z,30.60
2018-03-24T04:23:42.190Z,31.70
2018-03-24T04:26:09.637Z,31.00
2018-03-24T04:28:37.105Z,31.67
2018-03-24T04:31:04.558Z,30.20
2018-03-24T04:33:32.018Z,32.47
2018-03-24T04:35:59.468Z,31.77
2018-03-24T04:38:26.921Z,29.47
2018-03-24T04:40:54.376Z,30.37
2018-03-24T04:43:21.834Z,34.03
2018-03-24T04:45:49.289Z,31.10
2018-03-24T04:48:16.751Z,32.40
2018-03-24T04:50:44.208Z,30.60
2018-03-24T04:53:11.673Z,27.63
2018-03-24T04:55:39.126Z,30.50
2018-03-24T04:58:06.580Z,29.83
2018-03-24T05:00:34.034Z,28.17
2018-03-24T05:03:01.494Z,30.20
2018-03-24T05:05:28.956Z,32.13
2018-03-24T05:07:56.405Z,27.67
2018-03-24T05:10:23.866Z,28.90
2018-03-24T05:12:51.405Z,28.17
2018-03-24T05:15:18.850Z,33.30
2018-03-24T05:17:46.316Z,31.17
2018-03-24T05:20:13.809Z,31.30
2018-03-24T05:22:41.218Z,32.63
2018-03-24T05:25:08.675Z,31.73
2018-03-24T05:27:36.118Z,36.27
2018-03-24T05:30:04.342Z,32.63
2018-03-24T05:32:31.792Z,31.97
2018-03-24T05:34:59.261Z,30.43
2018-03-24T05:37:26.710Z,32.37
2018-03-24T05:39:54.166Z,31.03
2018-03-24T05:42:21.623Z,29.17
2018-03-24T05:44:49.077Z,31.17
2018-03-24T05:47:16.533Z,31.73
2018-03-24T05:49:43.997Z,30.57
2018-03-24T05:52:11.448Z,34.23
2018-03-24T05:54:38.905Z,29.43
2018-03-24T05:57:06.439Z,29.50
2018-03-24T05:59:33.890Z,28.93
2018-03-24T06:02:01.351Z,37.17
2018-03-24T06:04:28.802Z,33.80
2018-03-24T06:06:56.258Z,36.93
2018-03-24T06:09:23.709Z,34.90
2018-03-24T06:11:51.161Z,30.23
2018-03-24T06:14:18.609Z,31.20
2018-03-24T06:16:46.065Z,30.77
2018-03-24T06:19:14.293Z,34.43
2018-03-24T06:21:41.754Z,32.20
2018-03-24T06:24:09.229Z,33.30
2018-03-24T06:26:36.685Z,31.10
2018-03-24T06:29:04.150Z,34.93
2018-03-24T06:44:53.895Z,41.37
2018-03-24T06:47:21.317Z,37.80
2018-03-24T06:49:48.780Z,36.83
2018-03-24T06:52:16.221Z,36.93
2018-03-24T06:54:43.677Z,36.30
2018-03-24T06:57:11.131Z,37.53
2018-03-24T06:59:38.589Z,36.53
2018-03-24T07:02:06.037Z,35.07
2018-03-24T07:04:33.501Z,33.53
2018-03-24T07:07:00.954Z,35.77
2018-03-24T07:09:28.414Z,37.70
2018-03-24T07:11:55.873Z,39.20
2018-03-24T07:14:23.326Z,36.30
2018-03-24T07:16:50.789Z,38.80
2018-03-24T07:19:18.241Z,39.60
2018-03-24T07:21:45.738Z,35.43
2018-03-24T07:24:13.218Z,38.27
2018-03-24T07:26:41.441Z,35.23
2018-03-24T07:29:08.894Z,38.40
2018-03-24T07:31:36.449Z,35.03
2018-03-24T07:34:03.885Z,38.03
2018-03-24T07:36:31.345Z,39.87
2018-03-24T07:38:58.813Z,36.83
2018-03-24T07:41:26.273Z,37.87
2018-03-24T07:43:53.731Z,36.67
2018-03-24T07:46:21.189Z,39.03
2018-03-24T07:48:48.640Z,34.87
2018-03-24T07:51:16.107Z,38.63
2018-03-24T07:53:43.767Z,40.03
2018-03-24T07:56:11.250Z,36.37
2018-03-24T07:58:38.714Z,41.97
2018-03-24T08:01:06.234Z,37.60
2018-03-24T08:03:33.701Z,34.30
2018-03-24T08:06:01.161Z,35.40
2018-03-24T08:08:28.629Z,37.43
2018-03-24T08:10:56.092Z,41.77
2018-03-24T08:13:23.546Z,34.27
2018-03-24T08:15:51.013Z,35.37
2018-03-24T08:18:18.491Z,32.83
2018-03-24T08:20:46.710Z,33.17
2018-03-24T08:23:14.171Z,35.90
2018-03-24T08:25:41.629Z,34.70
2018-03-24T08:28:09.086Z,33.67
2018-03-24T08:30:36.543Z,32.87
2018-03-24T08:33:04.001Z,31.47
2018-03-24T08:35:31.453Z,29.83
2018-03-24T08:37:59.141Z,32.17
2018-03-24T08:40:26.589Z,30.07
2018-03-24T08:42:54.060Z,28.70
2018-03-24T08:45:21.510Z,27.00
2018-03-24T08:47:48.986Z,27.57
2018-03-24T08:50:16.439Z,26.23
2018-03-24T08:52:43.910Z,25.57
2018-03-24T08:55:12.138Z,21.60
2018-03-24T08:57:39.988Z,21.73
2018-03-24T09:00:07.449Z,21.27
2018-03-24T09:02:34.907Z,19.83
2018-03-24T09:05:02.357Z,18.60
2018-03-24T09:07:29.835Z,19.70
2018-03-24T09:09:57.291Z,17.47
2018-03-24T09:12:24.752Z,19.10
2018-03-24T09:14:52.205Z,20.00
2018-03-24T09:17:19.667Z,18.57
2018-03-24T09:19:47.121Z,19.00
2018-03-24T09:22:14.620Z,19.53
2018-03-24T09:24:42.036Z,18.97
2018-03-24T09:27:09.497Z,18.57
2018-03-24T09:29:36.964Z,17.63
2018-03-24T09:32:04.423Z,18.00
2018-03-24T09:34:31.877Z,18.10
2018-03-24T09:36:59.343Z,17.37
2018-03-24T09:39:26.797Z,16.73
2018-03-24T09:41:54.264Z,17.90
2018-03-24T09:44:22.486Z,17.70
2018-03-24T09:46:49.965Z,17.33
2018-03-24T09:49:17.427Z,16.27
2018-03-24T09:51:44.878Z,14.57
2018-03-24T09:54:12.342Z,14.60
2018-03-24T09:56:39.794Z,14.47
2018-03-24T09:59:07.271Z,14.03
2018-03-24T10:01:34.713Z,14.83
2018-03-24T10:04:02.173Z,15.50
2018-03-24T10:06:29.643Z,13.60
2018-03-24T10:08:57.882Z,11.23
2018-03-24T10:11:25.338Z,10.50
2018-03-24T10:13:52.798Z,11.03
2018-03-24T10:16:20.254Z,9.47
2018-03-24T10:18:47.717Z,10.10
2018-03-24T10:24:26.625Z,9.60
2018-03-24T10:26:54.090Z,11.20
2018-03-24T10:29:21.553Z,10.73
2018-03-24T10:31:49.006Z,11.40
2018-03-24T10:34:16.473Z,11.60
2018-03-24T10:36:43.950Z,12.70
2018-03-24T10:39:11.415Z,12.20
2018-03-24T10:41:38.882Z,10.57
2018-03-24T10:44:07.112Z,12.60
2018-03-24T10:46:34.569Z,12.47
2018-03-24T10:49:02.048Z,13.10
2018-03-24T10:51:29.496Z,12.37
2018-03-24T10:53:57.741Z,12.33
2018-03-24T10:56:25.201Z,14.40
2018-03-24T10:58:52.682Z,13.40
2018-03-24T11:01:23.684Z,13.93
2018-03-24T11:03:51.155Z,12.70
2018-03-24T11:06:18.608Z,12.33
2018-03-24T11:08:46.081Z,12.60
2018-03-24T11:11:13.572Z,11.00
2018-03-24T11:13:41.013Z,12.27
2018-03-24T11:16:08.474Z,12.17
2018-03-24T11:18:35.934Z,10.40
2018-03-24T11:21:03.386Z,11.83
2018-03-24T11:23:30.851Z,11.23
2018-03-24T11:25:58.296Z,13.00
2018-03-24T11:28:25.761Z,13.60
2018-03-24T11:30:53.225Z,12.47
2018-03-24T11:33:20.678Z,11.93
2018-03-24T11:35:48.137Z,11.67
2018-03-24T11:38:15.593Z,10.90
2018-03-24T11:40:43.045Z,11.07
2018-03-24T11:43:10.498Z,11.53
2018-03-24T11:45:38.739Z,10.80
2018-03-24T11:48:06.199Z,11.37
2018-03-24T11:50:33.657Z,11.00
2018-03-24T11:53:01.118Z,11.90
2018-03-24T11:55:28.577Z,9.90
2018-03-24T11:57:56.040Z,12.33
2018-03-24T12:00:23.497Z,11.07
2018-03-24T12:02:50.953Z,11.90
2018-03-24T12:05:18.414Z,11.07
2018-03-24T12:07:45.869Z,12.07
2018-03-24T12:10:13.331Z,10.80
2018-03-24T12:12:40.785Z,12.00
2018-03-24T12:15:08.263Z,10.33
2018-03-24T12:17:35.718Z,11.93
2018-03-24T12:20:03.185Z,10.40
2018-03-24T12:22:31.414Z,12.20
2018-03-24T12:24:58.884Z,11.30
2018-03-24T12:27:26.347Z,11.20
2018-03-24T12:29:53.808Z,11.73
2018-03-24T12:32:21.262Z,11.77
2018-03-24T12:34:48.738Z,12.17
2018-03-24T12:37:16.190Z,10.60
2018-03-24T12:39:43.653Z,11.77
2018-03-24T12:42:11.886Z,12.20
2018-03-24T12:44:39.373Z,12.50
2018-03-24T12:47:06.822Z,13.30
2018-03-24T12:49:34.286Z,11.40
2018-03-24T12:52:01.760Z,11.13
2018-03-24T12:54:29.994Z,11.77
2018-03-24T12:56:57.450Z,10.63
2018-03-24T12:59:24.982Z,10.80
2018-03-24T13:01:52.421Z,10.67
2018-03-24T13:04:19.877Z,11.90
2018-03-24T13:06:47.355Z,11.53
2018-03-24T13:09:14.811Z,12.17
2018-03-24T13:11:42.276Z,11.03
2018-03-24T13:14:09.730Z,11.50
2018-03-24T13:16:37.189Z,10.37
2018-03-24T13:19:04.655Z,12.00
2018-03-24T13:21:32.122Z,12.57
2018-03-24T13:23:59.577Z,12.10
2018-03-24T13:26:27.047Z,11.00
2018-03-24T13:28:54.510Z,10.40
2018-03-24T13:31:21.980Z,10.77
2018-03-24T13:33:50.209Z,10.87
2018-03-24T13:36:17.689Z,11.63
2018-03-24T13:38:45.161Z,12.27
2018-03-24T13:41:13.397Z,10.50
2018-03-24T13:43:40.849Z,9.67
2018-03-24T13:46:08.331Z,12.47
2018-03-24T13:48:35.781Z,10.90
2018-03-24T13:51:03.286Z,9.70
2018-03-24T13:53:31.506Z,11.30
2018-03-24T13:55:58.973Z,10.03
2018-03-24T13:58:26.433Z,12.47
2018-03-24T14:00:53.896Z,10.70
2018-03-24T14:03:21.349Z,11.23
2018-03-24T14:05:48.818Z,12.77
2018-03-24T14:08:17.054Z,11.13
2018-03-24T14:10:44.517Z,11.17
2018-03-24T14:13:11.998Z,10.00
2018-03-24T14:15:39.466Z,10.93
2018-03-24T14:18:07.681Z,9.73
2018-03-24T14:20:35.239Z,10.70
2018-03-24T14:23:02.683Z,12.23
2018-03-24T14:25:30.145Z,11.50
2018-03-24T14:27:57.607Z,11.70
2018-03-24T14:30:25.073Z,11.63
2018-03-24T14:32:52.529Z,13.63
2018-03-24T14:35:20.007Z,11.03
2018-03-24T14:37:47.467Z,13.03
2018-03-24T14:40:14.967Z,12.77
2018-03-24T14:42:43.195Z,11.60
2018-03-24T14:45:10.654Z,11.40
2018-03-24T14:47:38.128Z,11.30
2018-03-24T14:50:05.593Z,13.07
2018-03-24T14:52:33.832Z,13.47
2018-03-24T14:55:01.291Z,12.70
2018-03-24T14:57:28.763Z,12.57
2018-03-24T14:59:56.242Z,12.40
2018-03-24T15:02:23.717Z,12.80
2018-03-24T15:04:51.943Z,14.13
2018-03-24T15:07:19.407Z,13.20
2018-03-24T15:09:46.862Z,13.40
2018-03-24T15:12:14.337Z,13.17
2018-03-24T15:14:41.797Z,14.80
2018-03-24T15:17:10.035Z,14.50
2018-03-24T15:22:11.510Z,13.20
2018-03-24T15:24:38.980Z,12.90
2018-03-24T15:27:06.447Z,12.13
2018-03-24T15:29:45.714Z,13.07
2018-03-24T15:32:25.166Z,13.00
2018-03-24T15:35:04.706Z,13.87
2018-03-24T15:37:32.170Z,15.03
2018-03-24T15:39:59.628Z,13.63
2018-03-24T15:42:27.101Z,14.43
2018-03-24T15:44:54.553Z,13.93
2018-03-24T15:47:22.033Z,12.83
2018-03-24T15:49:49.491Z,14.23
2018-03-24T15:52:16.954Z,14.43
2018-03-24T15:54:44.459Z,14.80
2018-03-24T15:57:11.930Z,15.17
2018-03-24T15:59:39.406Z,16.07
2018-03-24T16:02:06.870Z,15.20
2018-03-24T16:04:34.330Z,14.77
2018-03-24T16:07:01.789Z,17.07
2018-03-24T16:09:29.252Z,32.70
2018-03-24T16:11:56.718Z,19.00
2018-03-24T16:14:24.954Z,18.77
2018-03-24T16:16:53.182Z,16.37
2018-03-24T16:19:20.658Z,14.90
2018-03-24T16:21:48.116Z,16.80
2018-03-24T16:24:15.594Z,15.30
2018-03-24T16:26:43.054Z,15.93
2018-03-24T16:29:10.519Z,16.57
2018-03-24T16:31:37.977Z,16.30
2018-03-24T16:34:05.726Z,14.47
2018-03-24T16:36:33.189Z,13.30
2018-03-24T16:39:00.680Z,14.60
2018-03-24T16:41:28.136Z,14.97
2018-03-24T16:43:55.604Z,16.03
2018-03-24T16:46:23.058Z,15.27
2018-03-24T16:48:51.320Z,15.23
2018-03-24T16:51:18.773Z,14.30
2018-03-24T16:53:46.239Z,16.60
2018-03-24T16:56:14.465Z,14.47
2018-03-24T16:58:41.946Z,15.70
2018-03-24T17:01:09.401Z,15.47
2018-03-24T17:03:36.875Z,14.67
2018-03-24T17:06:04.343Z,15.90
2018-03-24T17:08:32.589Z,14.53
2018-03-24T17:11:00.037Z,15.80
2018-03-24T17:13:27.498Z,14.80
2018-03-24T17:15:54.953Z,16.90
2018-03-24T17:18:23.192Z,15.40
2018-03-24T17:20:50.646Z,16.03
2018-03-24T17:23:18.150Z,14.43
2018-03-24T17:25:45.601Z,14.23
2018-03-24T17:28:13.058Z,13.83
2018-03-24T17:30:40.525Z,14.53
2018-03-24T17:33:08.023Z,15.07
2018-03-24T17:35:35.438Z,15.80
2018-03-24T17:38:02.913Z,14.27
2018-03-24T17:40:30.362Z,15.13
2018-03-24T17:42:57.838Z,13.63
2018-03-24T17:45:26.075Z,14.80
2018-03-24T17:47:53.546Z,14.53
2018-03-24T17:50:20.993Z,15.30
2018-03-24T17:52:48.450Z,14.50
2018-03-24T17:55:15.929Z,14.43
2018-03-24T17:57:44.165Z,16.70
2018-03-24T18:00:11.647Z,24.63
2018-03-24T18:02:39.102Z,34.17
2018-03-24T18:05:06.570Z,21.33
2018-03-24T18:07:34.799Z,15.03
2018-03-24T18:10:02.286Z,15.77
2018-03-24T18:12:30.485Z,16.80
2018-03-24T18:14:58.721Z,15.80
2018-03-24T18:17:26.182Z,15.17
2018-03-24T18:19:53.650Z,17.10
2018-03-24T18:22:21.113Z,16.20
2018-03-24T18:24:48.569Z,15.23
2018-03-24T18:27:16.021Z,18.97
2018-03-24T18:29:43.489Z,19.13
2018-03-24T18:32:10.933Z,18.80
2018-03-24T18:34:38.389Z,20.50
2018-03-24T18:37:05.854Z,21.10
2018-03-24T18:39:33.310Z,19.83
2018-03-24T18:42:00.767Z,20.43
2018-03-24T18:44:28.224Z,20.03
2018-03-24T18:46:55.681Z,22.70
2018-03-24T18:49:23.141Z,23.80
2018-03-24T18:51:50.584Z,23.63
2018-03-24T18:54:18.045Z,25.27
2018-03-24T18:56:45.660Z,23.03
2018-03-24T18:59:13.122Z,23.80
2018-03-24T19:01:40.620Z,28.40
2018-03-24T19:04:08.074Z,24.80
2018-03-24T19:06:35.520Z,19.30
2018-03-24T19:09:02.987Z,21.97
2018-03-24T19:11:30.449Z,19.67
2018-03-24T19:13:57.902Z,19.43
2018-03-24T19:16:25.359Z,19.50
2018-03-24T19:18:52.818Z,19.50
2018-03-24T19:21:20.274Z,19.40
2018-03-24T19:23:47.738Z,21.13
2018-03-24T19:26:15.200Z,19.77
2018-03-24T19:28:43.421Z,20.00
2018-03-24T19:31:10.890Z,19.57
2018-03-24T19:33:38.336Z,20.43
2018-03-24T19:36:05.793Z,21.37
2018-03-24T19:38:33.249Z,20.90
2018-03-24T19:41:01.469Z,21.37
2018-03-24T19:43:29.691Z,23.37
2018-03-24T19:45:57.151Z,21.03
2018-03-24T19:48:24.596Z,20.93
2018-03-24T19:50:52.061Z,20.90
2018-03-24T19:53:19.510Z,20.27
2018-03-24T19:55:46.985Z,21.37
2018-03-24T19:58:14.449Z,22.03
2018-03-24T20:00:41.902Z,23.00
2018-03-24T20:03:09.357Z,22.10
2018-03-24T20:05:36.823Z,19.83
2018-03-24T20:08:04.274Z,22.60
2018-03-24T20:10:31.789Z,22.27
2018-03-24T20:12:59.233Z,21.00
2018-03-24T20:15:27.460Z,21.67
2018-03-24T20:17:54.918Z,22.17
2018-03-24T20:20:22.450Z,21.70
2018-03-24T20:22:49.889Z,23.30
2018-03-24T20:25:17.349Z,29.10
2018-03-24T20:27:44.796Z,23.27
2018-03-24T20:30:12.259Z,25.40
2018-03-24T20:32:39.713Z,21.90
2018-03-24T20:35:07.173Z,21.93
2018-03-24T20:37:34.626Z,18.40
2018-03-24T20:40:02.857Z,19.53
2018-03-24T20:42:30.305Z,21.20
2018-03-24T20:44:57.768Z,20.70
2018-03-24T20:47:25.221Z,22.47
2018-03-24T20:49:52.682Z,24.70
2018-03-24T20:52:20.137Z,20.63
2018-03-24T20:54:47.588Z,21.80
2018-03-24T20:57:15.046Z,22.50
2018-03-24T20:59:42.502Z,20.93
2018-03-24T21:02:09.968Z,22.17
2018-03-24T21:04:37.426Z,22.20
2018-03-24T21:07:04.890Z,21.57
2018-03-24T21:09:32.354Z,23.30
2018-03-24T21:12:00.583Z,23.17
2018-03-24T21:14:28.037Z,21.30
2018-03-24T21:16:55.495Z,21.07
2018-03-24T21:19:22.946Z,21.13
2018-03-24T21:21:50.412Z,23.00
2018-03-24T21:24:17.870Z,22.53
2018-03-24T21:26:45.313Z,21.87
2018-03-24T21:29:12.769Z,23.43
2018-03-24T21:31:40.229Z,22.53
2018-03-24T21:34:07.677Z,23.07
2018-03-24T21:36:35.141Z,24.30
2018-03-24T21:39:02.693Z,24.07
2018-03-24T21:41:30.153Z,26.87
2018-03-24T21:43:57.594Z,22.67
2018-03-24T21:46:25.054Z,26.93
2018-03-24T21:48:52.516Z,28.80
2018-03-24T21:51:19.974Z,27.60
2018-03-24T21:53:47.417Z,26.57
2018-03-24T21:56:14.877Z,28.03
2018-03-24T21:58:42.329Z,24.90
2018-03-24T22:01:09.802Z,23.90
2018-03-24T22:03:37.249Z,25.80
2018-03-24T22:06:04.706Z,26.03
2018-03-24T22:08:32.161Z,23.20
2018-03-24T22:10:59.645Z,24.27
2018-03-24T22:13:27.094Z,26.13
2018-03-24T22:15:54.557Z,24.93
2018-03-24T22:18:22.005Z,27.40
2018-03-24T22:20:49.461Z,26.40
2018-03-24T22:23:16.918Z,24.03
2018-03-24T22:25:44.389Z,26.40
2018-03-24T22:28:11.858Z,24.07
2018-03-24T22:30:39.305Z,25.50
2018-03-24T22:33:06.768Z,26.23
2018-03-24T22:35:34.217Z,26.30
2018-03-24T22:38:01.757Z,23.40
2018-03-24T22:40:29.203Z,23.00
2018-03-24T22:42:56.661Z,23.40
2018-03-24T22:45:24.113Z,25.30
2018-03-24T22:47:51.581Z,25.63
2018-03-24T22:50:19.035Z,25.60
2018-03-24T22:52:46.497Z,27.60
2018-03-24T22:55:13.946Z,27.70
2018-03-24T22:57:42.081Z,27.00
2018-03-24T23:00:10.302Z,24.70
2018-03-24T23:02:37.756Z,25.30
2018-03-24T23:05:05.214Z,24.40
2018-03-24T23:07:32.664Z,25.70
2018-03-24T23:10:00.121Z,26.40
2018-03-24T23:12:27.581Z,25.80
2018-03-24T23:14:55.068Z,22.50
2018-03-24T23:17:22.492Z,22.97
2018-03-24T23:19:49.941Z,27.03
2018-03-24T23:22:17.405Z,23.87
2018-03-24T23:24:44.860Z,21.70
2018-03-24T23:27:12.317Z,23.90
2018-03-24T23:29:39.772Z,23.23
2018-03-24T23:32:07.228Z,22.73
2018-03-24T23:34:34.695Z,23.07
2018-03-24T23:37:02.156Z,23.77
2018-03-24T23:39:29.601Z,26.07
2018-03-24T23:41:57.060Z,25.43
2018-03-24T23:44:24.509Z,24.03
2018-03-24T23:46:51.966Z,23.77
2018-03-24T23:49:19.418Z,23.53
2018-03-24T23:51:46.878Z,26.33
2018-03-24T23:54:14.326Z,22.07
2018-03-24T23:56:41.789Z,22.27
2018-03-24T23:59:09.242Z,27.90
